sensor_id;sensor_type;location;lat;lon;timestamp;pressure;altitude;pressure_sealevel;temperature;humidity
63708;BME280;67643;-34.198;22.084;2023-05-02T00:02:10;100317.69;;;18.18;44.88
63708;BME280;67643;-34.198;22.084;2023-05-02T00:04:38;100318.92;;;18.13;44.74
63708;BME280;67643;-34.198;22.084;2023-05-02T00:07:07;100321.81;;;17.61;46.09
63708;BME280;67643;-34.198;22.084;2023-05-02T00:09:36;100316.42;;;18.02;45.30
63708;BME280;67643;-34.198;22.084;2023-05-02T00:12:04;100318.47;;;18.00;45.17
63708;BME280;67643;-34.198;22.084;2023-05-02T00:14:32;100317.24;;;18.08;44.99
63708;BME280;67643;-34.198;22.084;2023-05-02T00:17:01;100318.64;;;18.41;44.41
63708;BME280;67643;-34.198;22.084;2023-05-02T00:19:29;100317.95;;;19.12;43.36
63708;BME280;67643;-34.198;22.084;2023-05-02T00:21:58;100312.63;;;18.79;44.25
63708;BME280;67643;-34.198;22.084;2023-05-02T00:24:27;100317.42;;;17.71;45.33
63708;BME280;67643;-34.198;22.084;2023-05-02T00:26:55;100317.36;;;18.24;45.05
63708;BME280;67643;-34.198;22.084;2023-05-02T00:29:24;100320.46;;;18.12;44.62
63708;BME280;67643;-34.198;22.084;2023-05-02T00:31:52;100322.03;;;17.67;45.50
63708;BME280;67643;-34.198;22.084;2023-05-02T00:34:21;100314.59;;;18.76;43.98
63708;BME280;67643;-34.198;22.084;2023-05-02T00:36:49;100310.67;;;18.65;43.86
63708;BME280;67643;-34.198;22.084;2023-05-02T00:39:17;100313.54;;;18.26;44.91
63708;BME280;67643;-34.198;22.084;2023-05-02T00:41:46;100316.92;;;18.65;43.81
63708;BME280;67643;-34.198;22.084;2023-05-02T00:44:15;100320.58;;;18.78;44.10
63708;BME280;67643;-34.198;22.084;2023-05-02T00:46:43;100323.82;;;17.86;44.74
63708;BME280;67643;-34.198;22.084;2023-05-02T00:49:12;100329.25;;;18.04;45.27
63708;BME280;67643;-34.198;22.084;2023-05-02T00:51:41;100323.05;;;18.64;44.24
63708;BME280;67643;-34.198;22.084;2023-05-02T00:54:10;100321.76;;;19.06;43.46
63708;BME280;67643;-34.198;22.084;2023-05-02T00:56:38;100318.30;;;19.30;42.98
63708;BME280;67643;-34.198;22.084;2023-05-02T00:59:08;100319.48;;;19.43;42.91
63708;BME280;67643;-34.198;22.084;2023-05-02T01:01:46;100322.55;;;18.25;45.06
63708;BME280;67643;-34.198;22.084;2023-05-02T01:04:26;100323.39;;;18.24;45.06
63708;BME280;67643;-34.198;22.084;2023-05-02T01:07:09;100325.76;;;18.35;44.55
63708;BME280;67643;-34.198;22.084;2023-05-02T01:09:55;100326.28;;;18.88;43.65
63708;BME280;67643;-34.198;22.084;2023-05-02T01:12:31;100331.26;;;18.94;43.32
63708;BME280;67643;-34.198;22.084;2023-05-02T01:15:06;100331.26;;;19.80;42.17
63708;BME280;67643;-34.198;22.084;2023-05-02T01:17:36;100335.61;;;18.53;44.25
63708;BME280;67643;-34.198;22.084;2023-05-02T01:20:10;100336.77;;;18.56;44.03
63708;BME280;67643;-34.198;22.084;2023-05-02T01:22:39;100334.50;;;19.09;43.43
63708;BME280;67643;-34.198;22.084;2023-05-02T01:25:18;100331.21;;;18.46;44.58
63708;BME280;67643;-34.198;22.084;2023-05-02T01:27:55;100324.01;;;19.25;43.17
63708;BME280;67643;-34.198;22.084;2023-05-02T01:30:27;100323.89;;;18.94;43.72
63708;BME280;67643;-34.198;22.084;2023-05-02T01:32:57;100317.37;;;18.40;44.38
63708;BME280;67643;-34.198;22.084;2023-05-02T01:35:27;100319.39;;;18.60;44.39
63708;BME280;67643;-34.198;22.084;2023-05-02T01:37:57;100326.68;;;18.38;44.44
63708;BME280;67643;-34.198;22.084;2023-05-02T01:40:28;100328.48;;;18.89;43.96
63708;BME280;67643;-34.198;22.084;2023-05-02T01:42:57;100327.38;;;18.31;44.13
63708;BME280;67643;-34.198;22.084;2023-05-02T01:45:28;100322.49;;;18.45;43.95
63708;BME280;67643;-34.198;22.084;2023-05-02T01:47:57;100318.81;;;18.21;44.29
63708;BME280;67643;-34.198;22.084;2023-05-02T01:50:28;100320.68;;;18.38;44.01
63708;BME280;67643;-34.198;22.084;2023-05-02T01:52:58;100318.85;;;18.52;43.96
63708;BME280;67643;-34.198;22.084;2023-05-02T01:55:26;100321.12;;;18.38;44.40
63708;BME280;67643;-34.198;22.084;2023-05-02T01:57:56;100322.30;;;17.77;45.58
63708;BME280;67643;-34.198;22.084;2023-05-02T02:00:25;100313.89;;;18.23;45.04
63708;BME280;67643;-34.198;22.084;2023-05-02T02:02:56;100316.23;;;18.33;44.43
63708;BME280;67643;-34.198;22.084;2023-05-02T04:07:21;100350.71;;;13.87;59.96
63708;BME280;67643;-34.198;22.084;2023-05-02T04:09:50;100353.47;;;15.53;54.91
63708;BME280;67643;-34.198;22.084;2023-05-02T04:12:19;100359.93;;;16.43;51.20
63708;BME280;67643;-34.198;22.084;2023-05-02T04:14:47;100358.23;;;16.77;49.36
63708;BME280;67643;-34.198;22.084;2023-05-02T04:17:15;100360.94;;;17.59;48.18
63708;BME280;67643;-34.198;22.084;2023-05-02T04:19:44;100358.28;;;18.18;46.82
63708;BME280;67643;-34.198;22.084;2023-05-02T04:22:13;100359.87;;;17.87;46.65
63708;BME280;67643;-34.198;22.084;2023-05-02T04:24:41;100356.34;;;18.31;45.85
63708;BME280;67643;-34.198;22.084;2023-05-02T04:27:10;100360.16;;;18.29;45.66
63708;BME280;67643;-34.198;22.084;2023-05-02T04:29:38;100365.38;;;18.60;45.04
63708;BME280;67643;-34.198;22.084;2023-05-02T04:32:07;100362.07;;;18.42;45.35
63708;BME280;67643;-34.198;22.084;2023-05-02T04:34:35;100355.21;;;18.65;45.08
63708;BME280;67643;-34.198;22.084;2023-05-02T04:37:03;100362.07;;;17.96;46.00
63708;BME280;67643;-34.198;22.084;2023-05-02T04:39:32;100362.25;;;18.54;45.24
63708;BME280;67643;-34.198;22.084;2023-05-02T04:42:00;100366.75;;;18.65;44.99
63708;BME280;67643;-34.198;22.084;2023-05-02T04:44:29;100364.41;;;18.94;44.49
63708;BME280;67643;-34.198;22.084;2023-05-02T04:46:57;100361.31;;;18.51;44.90
63708;BME280;67643;-34.198;22.084;2023-05-02T04:49:26;100363.51;;;18.73;44.58
63708;BME280;67643;-34.198;22.084;2023-05-02T04:51:54;100365.42;;;18.57;44.62
63708;BME280;67643;-34.198;22.084;2023-05-02T04:54:23;100362.20;;;18.46;44.32
63708;BME280;67643;-34.198;22.084;2023-05-02T04:56:52;100365.75;;;18.27;44.67
63708;BME280;67643;-34.198;22.084;2023-05-02T04:59:21;100363.83;;;18.29;44.76
63708;BME280;67643;-34.198;22.084;2023-05-02T05:01:50;100373.81;;;17.67;45.55
63708;BME280;67643;-34.198;22.084;2023-05-02T05:04:18;100372.41;;;18.55;44.59
63708;BME280;67643;-34.198;22.084;2023-05-02T05:06:47;100370.43;;;18.17;44.81
63708;BME280;67643;-34.198;22.084;2023-05-02T05:09:16;100372.41;;;17.29;46.07
63708;BME280;67643;-34.198;22.084;2023-05-02T05:11:45;100367.21;;;16.53;47.05
63708;BME280;67643;-34.198;22.084;2023-05-02T05:14:13;100367.30;;;17.55;45.81
63708;BME280;67643;-34.198;22.084;2023-05-02T05:16:42;100371.04;;;17.41;45.87
63708;BME280;67643;-34.198;22.084;2023-05-02T05:19:10;100375.27;;;17.71;45.53
63708;BME280;67643;-34.198;22.084;2023-05-02T05:21:39;100382.58;;;18.07;45.38
63708;BME280;67643;-34.198;22.084;2023-05-02T05:24:08;100386.61;;;17.52;45.66
63708;BME280;67643;-34.198;22.084;2023-05-02T05:26:37;100389.29;;;17.91;45.10
63708;BME280;67643;-34.198;22.084;2023-05-02T05:29:05;100389.98;;;17.05;46.68
63708;BME280;67643;-34.198;22.084;2023-05-02T05:31:34;100389.08;;;16.88;47.49
63708;BME280;67643;-34.198;22.084;2023-05-02T05:34:02;100398.96;;;17.38;46.71
63708;BME280;67643;-34.198;22.084;2023-05-02T05:36:31;100400.16;;;17.15;47.21
63708;BME280;67643;-34.198;22.084;2023-05-02T05:38:59;100401.22;;;17.53;46.78
63708;BME280;67643;-34.198;22.084;2023-05-02T05:41:28;100402.17;;;17.04;47.38
63708;BME280;67643;-34.198;22.084;2023-05-02T05:43:56;100402.30;;;17.50;46.72
63708;BME280;67643;-34.198;22.084;2023-05-02T05:46:25;100402.10;;;17.74;46.96
63708;BME280;67643;-34.198;22.084;2023-05-02T05:48:53;100411.80;;;17.87;46.88
63708;BME280;67643;-34.198;22.084;2023-05-02T05:51:22;100417.43;;;17.80;46.58
63708;BME280;67643;-34.198;22.084;2023-05-02T05:53:50;100423.15;;;18.12;46.18
63708;BME280;67643;-34.198;22.084;2023-05-02T05:56:19;100423.89;;;18.22;45.48
63708;BME280;67643;-34.198;22.084;2023-05-02T05:58:47;100434.62;;;18.28;45.25
63708;BME280;67643;-34.198;22.084;2023-05-02T06:01:16;100432.93;;;18.45;45.04
63708;BME280;67643;-34.198;22.084;2023-05-02T06:03:44;100438.20;;;18.53;45.08
63708;BME280;67643;-34.198;22.084;2023-05-02T06:06:13;100445.31;;;18.39;45.23
63708;BME280;67643;-34.198;22.084;2023-05-02T06:08:42;100442.32;;;18.72;44.88
63708;BME280;67643;-34.198;22.084;2023-05-02T06:11:11;100441.68;;;18.56;45.24
63708;BME280;67643;-34.198;22.084;2023-05-02T06:13:39;100444.84;;;18.60;45.07
63708;BME280;67643;-34.198;22.084;2023-05-02T06:16:08;100448.19;;;18.22;45.58
63708;BME280;67643;-34.198;22.084;2023-05-02T06:18:36;100449.54;;;18.67;44.91
63708;BME280;67643;-34.198;22.084;2023-05-02T06:21:05;100457.24;;;19.04;44.48
63708;BME280;67643;-34.198;22.084;2023-05-02T06:23:33;100454.15;;;18.68;44.73
63708;BME280;67643;-34.198;22.084;2023-05-02T06:26:03;100451.40;;;18.74;44.74
63708;BME280;67643;-34.198;22.084;2023-05-02T06:28:32;100453.98;;;19.25;44.12
63708;BME280;67643;-34.198;22.084;2023-05-02T06:31:02;100459.48;;;19.22;43.73
63708;BME280;67643;-34.198;22.084;2023-05-02T06:33:32;100463.80;;;19.41;43.40
63708;BME280;67643;-34.198;22.084;2023-05-02T06:36:00;100466.51;;;19.76;42.86
63708;BME280;67643;-34.198;22.084;2023-05-02T06:38:29;100469.05;;;19.61;43.30
63708;BME280;67643;-34.198;22.084;2023-05-02T06:40:57;100463.19;;;19.17;44.56
63708;BME280;67643;-34.198;22.084;2023-05-02T06:43:26;100468.67;;;19.37;43.80
63708;BME280;67643;-34.198;22.084;2023-05-02T06:45:55;100477.99;;;19.09;44.20
63708;BME280;67643;-34.198;22.084;2023-05-02T06:48:23;100484.54;;;19.50;44.11
63708;BME280;67643;-34.198;22.084;2023-05-02T06:50:52;100486.80;;;19.64;43.36
63708;BME280;67643;-34.198;22.084;2023-05-02T06:53:20;100496.59;;;19.79;43.12
63708;BME280;67643;-34.198;22.084;2023-05-02T06:55:49;100508.65;;;19.76;43.15
63708;BME280;67643;-34.198;22.084;2023-05-02T06:58:17;100515.38;;;19.69;43.25
63708;BME280;67643;-34.198;22.084;2023-05-02T07:00:46;100522.60;;;20.01;42.82
63708;BME280;67643;-34.198;22.084;2023-05-02T07:03:15;100521.95;;;19.87;42.93
63708;BME280;67643;-34.198;22.084;2023-05-02T07:05:43;100524.78;;;19.73;43.14
63708;BME280;67643;-34.198;22.084;2023-05-02T07:08:12;100532.64;;;19.38;43.28
63708;BME280;67643;-34.198;22.084;2023-05-02T07:10:41;100539.27;;;20.13;42.62
63708;BME280;67643;-34.198;22.084;2023-05-02T07:13:09;100534.55;;;19.52;43.12
63708;BME280;67643;-34.198;22.084;2023-05-02T07:15:38;100533.61;;;19.86;42.58
63708;BME280;67643;-34.198;22.084;2023-05-02T07:18:07;100533.43;;;19.88;42.93
63708;BME280;67643;-34.198;22.084;2023-05-02T07:20:35;100531.19;;;19.55;42.62
63708;BME280;67643;-34.198;22.084;2023-05-02T07:23:04;100533.81;;;20.20;42.37
63708;BME280;67643;-34.198;22.084;2023-05-02T07:25:32;100536.02;;;20.20;42.31
63708;BME280;67643;-34.198;22.084;2023-05-02T07:28:01;100531.54;;;19.53;42.30
63708;BME280;67643;-34.198;22.084;2023-05-02T07:30:29;100526.62;;;19.76;42.17
63708;BME280;67643;-34.198;22.084;2023-05-02T07:32:58;100528.21;;;19.97;42.02
63708;BME280;67643;-34.198;22.084;2023-05-02T07:35:26;100528.72;;;19.98;41.83
63708;BME280;67643;-34.198;22.084;2023-05-02T07:37:55;100531.63;;;20.03;41.94
63708;BME280;67643;-34.198;22.084;2023-05-02T07:40:23;100533.66;;;20.11;41.88
63708;BME280;67643;-34.198;22.084;2023-05-02T07:42:52;100538.71;;;20.14;41.78
63708;BME280;67643;-34.198;22.084;2023-05-02T07:45:21;100541.01;;;19.94;41.75
63708;BME280;67643;-34.198;22.084;2023-05-02T07:47:49;100545.02;;;20.08;41.61
63708;BME280;67643;-34.198;22.084;2023-05-02T07:50:18;100551.88;;;20.09;41.72
63708;BME280;67643;-34.198;22.084;2023-05-02T07:52:46;100552.93;;;20.26;41.83
63708;BME280;67643;-34.198;22.084;2023-05-02T07:55:14;100554.42;;;20.42;41.54
63708;BME280;67643;-34.198;22.084;2023-05-02T07:57:43;100554.16;;;20.14;41.64
63708;BME280;67643;-34.198;22.084;2023-05-02T08:00:11;100559.28;;;20.42;41.61
63708;BME280;67643;-34.198;22.084;2023-05-02T08:02:40;100556.78;;;20.59;41.38
63708;BME280;67643;-34.198;22.084;2023-05-02T08:05:09;100554.69;;;20.88;41.19
63708;BME280;67643;-34.198;22.084;2023-05-02T08:07:38;100558.97;;;20.56;40.97
63708;BME280;67643;-34.198;22.084;2023-05-02T08:10:08;100561.83;;;20.53;41.34
63708;BME280;67643;-34.198;22.084;2023-05-02T08:12:38;100558.50;;;20.49;41.06
63708;BME280;67643;-34.198;22.084;2023-05-02T08:15:09;100556.69;;;20.51;41.05
63708;BME280;67643;-34.198;22.084;2023-05-02T08:17:39;100555.34;;;20.73;41.07
63708;BME280;67643;-34.198;22.084;2023-05-02T08:20:08;100552.56;;;20.51;41.13
63708;BME280;67643;-34.198;22.084;2023-05-02T08:22:37;100551.62;;;20.52;41.15
63708;BME280;67643;-34.198;22.084;2023-05-02T08:25:06;100555.82;;;21.17;40.63
63708;BME280;67643;-34.198;22.084;2023-05-02T08:27:34;100558.50;;;20.40;41.08
63708;BME280;67643;-34.198;22.084;2023-05-02T08:30:03;100555.65;;;20.85;40.81
63708;BME280;67643;-34.198;22.084;2023-05-02T08:32:32;100553.28;;;20.67;40.72
63708;BME280;67643;-34.198;22.084;2023-05-02T08:35:01;100556.16;;;20.78;40.78
63708;BME280;67643;-34.198;22.084;2023-05-02T08:37:29;100559.31;;;21.06;39.99
63708;BME280;67643;-34.198;22.084;2023-05-02T08:39:58;100562.82;;;21.12;39.90
63708;BME280;67643;-34.198;22.084;2023-05-02T08:42:26;100564.20;;;21.48;40.06
63708;BME280;67643;-34.198;22.084;2023-05-02T08:44:57;100562.02;;;20.81;40.32
63708;BME280;67643;-34.198;22.084;2023-05-02T08:47:27;100561.03;;;21.44;40.14
63708;BME280;67643;-34.198;22.084;2023-05-02T08:49:59;100565.32;;;21.19;39.95
63708;BME280;67643;-34.198;22.084;2023-05-02T08:52:28;100568.76;;;21.41;40.01
63708;BME280;67643;-34.198;22.084;2023-05-02T08:54:57;100568.37;;;21.38;40.19
63708;BME280;67643;-34.198;22.084;2023-05-02T08:57:28;100564.61;;;21.02;40.55
63708;BME280;67643;-34.198;22.084;2023-05-02T08:59:57;100567.25;;;21.39;40.01
63708;BME280;67643;-34.198;22.084;2023-05-02T09:02:39;100561.72;;;21.53;39.60
63708;BME280;67643;-34.198;22.084;2023-05-02T09:05:11;100558.46;;;21.50;39.58
63708;BME280;67643;-34.198;22.084;2023-05-02T09:07:47;100557.51;;;21.90;39.40
63708;BME280;67643;-34.198;22.084;2023-05-02T09:10:16;100555.99;;;21.90;39.14
63708;BME280;67643;-34.198;22.084;2023-05-02T09:12:45;100554.05;;;21.96;39.52
63708;BME280;67643;-34.198;22.084;2023-05-02T09:15:15;100552.73;;;21.96;39.13
63708;BME280;67643;-34.198;22.084;2023-05-02T09:17:45;100553.67;;;21.66;39.13
63708;BME280;67643;-34.198;22.084;2023-05-02T09:20:15;100557.16;;;21.59;39.21
63708;BME280;67643;-34.198;22.084;2023-05-02T09:22:50;100554.11;;;21.78;39.48
63708;BME280;67643;-34.198;22.084;2023-05-02T09:25:19;100553.10;;;22.03;39.50
63708;BME280;67643;-34.198;22.084;2023-05-02T09:27:52;100550.57;;;21.60;39.92
63708;BME280;67643;-34.198;22.084;2023-05-02T09:30:22;100553.66;;;21.82;40.04
63708;BME280;67643;-34.198;22.084;2023-05-02T09:32:52;100551.93;;;21.94;39.92
63708;BME280;67643;-34.198;22.084;2023-05-02T09:35:21;100549.41;;;21.94;39.88
63708;BME280;67643;-34.198;22.084;2023-05-02T09:37:51;100547.83;;;21.69;39.85
63708;BME280;67643;-34.198;22.084;2023-05-02T09:40:20;100544.39;;;21.52;39.93
63708;BME280;67643;-34.198;22.084;2023-05-02T09:42:49;100540.38;;;21.69;39.68
63708;BME280;67643;-34.198;22.084;2023-05-02T09:45:21;100541.30;;;21.92;39.82
63708;BME280;67643;-34.198;22.084;2023-05-02T09:47:49;100538.28;;;22.06;39.66
63708;BME280;67643;-34.198;22.084;2023-05-02T09:50:35;100532.78;;;21.79;39.84
63708;BME280;67643;-34.198;22.084;2023-05-02T09:53:05;100533.85;;;21.90;39.69
63708;BME280;67643;-34.198;22.084;2023-05-02T09:55:34;100535.75;;;21.94;39.50
63708;BME280;67643;-34.198;22.084;2023-05-02T09:58:03;100534.19;;;21.92;39.56
63708;BME280;67643;-34.198;22.084;2023-05-02T10:00:42;100531.62;;;21.98;39.56
63708;BME280;67643;-34.198;22.084;2023-05-02T12:06:56;100491.84;;;19.49;48.80
63708;BME280;67643;-34.198;22.084;2023-05-02T12:09:25;100487.91;;;21.17;44.55
63708;BME280;67643;-34.198;22.084;2023-05-02T12:11:53;100482.70;;;21.71;42.59
63708;BME280;67643;-34.198;22.084;2023-05-02T12:14:29;100484.87;;;22.63;41.04
63708;BME280;67643;-34.198;22.084;2023-05-02T12:16:58;100487.99;;;22.86;40.29
63708;BME280;67643;-34.198;22.084;2023-05-02T12:19:28;100487.40;;;23.03;39.93
63708;BME280;67643;-34.198;22.084;2023-05-02T12:21:56;100483.28;;;23.13;40.16
63708;BME280;67643;-34.198;22.084;2023-05-02T12:24:25;100481.35;;;23.36;39.89
63708;BME280;67643;-34.198;22.084;2023-05-02T12:27:09;100489.37;;;23.08;39.94
63708;BME280;67643;-34.198;22.084;2023-05-02T12:29:39;100493.75;;;23.14;40.01
63708;BME280;67643;-34.198;22.084;2023-05-02T12:32:08;100495.19;;;22.71;40.34
63708;BME280;67643;-34.198;22.084;2023-05-02T12:34:38;100494.29;;;22.77;40.67
63708;BME280;67643;-34.198;22.084;2023-05-02T12:37:07;100500.11;;;22.94;40.75
63708;BME280;67643;-34.198;22.084;2023-05-02T12:39:37;100501.39;;;23.12;40.61
63708;BME280;67643;-34.198;22.084;2023-05-02T12:42:15;100499.50;;;23.44;40.44
63708;BME280;67643;-34.198;22.084;2023-05-02T12:44:45;100497.95;;;23.24;40.59
63708;BME280;67643;-34.198;22.084;2023-05-02T12:47:15;100501.40;;;23.30;41.08
63708;BME280;67643;-34.198;22.084;2023-05-02T12:49:52;100504.10;;;22.91;41.19
63708;BME280;67643;-34.198;22.084;2023-05-02T12:52:44;100502.28;;;23.10;41.08
63708;BME280;67643;-34.198;22.084;2023-05-02T12:55:18;100500.09;;;22.70;41.66
63708;BME280;67643;-34.198;22.084;2023-05-02T12:57:47;100500.53;;;22.94;41.50
63708;BME280;67643;-34.198;22.084;2023-05-02T13:00:16;100497.92;;;22.88;41.62
63708;BME280;67643;-34.198;22.084;2023-05-02T13:02:45;100496.74;;;22.64;41.74
63708;BME280;67643;-34.198;22.084;2023-05-02T13:05:15;100494.60;;;23.26;41.46
63708;BME280;67643;-34.198;22.084;2023-05-02T13:07:45;100495.05;;;23.45;40.67
63708;BME280;67643;-34.198;22.084;2023-05-02T13:10:13;100501.37;;;23.30;41.79
63708;BME280;67643;-34.198;22.084;2023-05-02T13:12:42;100497.01;;;23.31;40.62
63708;BME280;67643;-34.198;22.084;2023-05-02T13:15:11;100497.26;;;23.84;40.26
63708;BME280;67643;-34.198;22.084;2023-05-02T13:17:40;100492.50;;;23.59;40.32
63708;BME280;67643;-34.198;22.084;2023-05-02T13:20:09;100499.16;;;23.91;40.68
63708;BME280;67643;-34.198;22.084;2023-05-02T13:22:38;100499.05;;;23.64;40.85
63708;BME280;67643;-34.198;22.084;2023-05-02T13:25:08;100494.58;;;23.61;40.92
63708;BME280;67643;-34.198;22.084;2023-05-02T13:27:36;100490.56;;;23.18;41.03
63708;BME280;67643;-34.198;22.084;2023-05-02T13:30:04;100487.88;;;23.65;41.13
63708;BME280;67643;-34.198;22.084;2023-05-02T13:32:33;100488.72;;;23.33;40.99
63708;BME280;67643;-34.198;22.084;2023-05-02T13:35:01;100494.94;;;23.10;41.36
63708;BME280;67643;-34.198;22.084;2023-05-02T13:37:29;100497.93;;;23.22;41.32
63708;BME280;67643;-34.198;22.084;2023-05-02T13:39:58;100497.69;;;23.14;41.66
63708;BME280;67643;-34.198;22.084;2023-05-02T13:42:26;100497.96;;;23.51;41.77
63708;BME280;67643;-34.198;22.084;2023-05-02T13:44:55;100501.05;;;22.99;42.03
63708;BME280;67643;-34.198;22.084;2023-05-02T13:47:24;100505.99;;;23.38;42.27
63708;BME280;67643;-34.198;22.084;2023-05-02T13:49:52;100505.96;;;22.77;42.20
63708;BME280;67643;-34.198;22.084;2023-05-02T13:52:20;100510.41;;;22.94;42.51
63708;BME280;67643;-34.198;22.084;2023-05-02T13:54:49;100512.27;;;23.09;42.78
63708;BME280;67643;-34.198;22.084;2023-05-02T13:57:16;100515.54;;;23.01;42.96
63708;BME280;67643;-34.198;22.084;2023-05-02T13:59:45;100515.47;;;22.75;43.42
63708;BME280;67643;-34.198;22.084;2023-05-02T14:02:14;100520.50;;;22.86;43.28
63708;BME280;67643;-34.198;22.084;2023-05-02T14:04:42;100522.13;;;22.90;43.29
63708;BME280;67643;-34.198;22.084;2023-05-02T14:07:10;100522.94;;;22.74;43.63
63708;BME280;67643;-34.198;22.084;2023-05-02T14:09:39;100524.26;;;22.92;43.34
63708;BME280;67643;-34.198;22.084;2023-05-02T14:12:08;100527.61;;;22.72;43.99
63708;BME280;67643;-34.198;22.084;2023-05-02T14:14:36;100528.62;;;22.73;43.70
63708;BME280;67643;-34.198;22.084;2023-05-02T14:17:05;100528.25;;;22.29;44.15
63708;BME280;67643;-34.198;22.084;2023-05-02T14:19:33;100531.61;;;22.36;44.41
63708;BME280;67643;-34.198;22.084;2023-05-02T14:22:02;100533.09;;;22.45;44.20
63708;BME280;67643;-34.198;22.084;2023-05-02T14:24:30;100537.66;;;22.51;44.11
63708;BME280;67643;-34.198;22.084;2023-05-02T14:26:58;100540.10;;;22.47;44.34
63708;BME280;67643;-34.198;22.084;2023-05-02T14:29:27;100538.52;;;22.31;44.62
63708;BME280;67643;-34.198;22.084;2023-05-02T14:31:55;100541.71;;;22.21;45.04
63708;BME280;67643;-34.198;22.084;2023-05-02T14:34:23;100542.37;;;22.34;44.68
63708;BME280;67643;-34.198;22.084;2023-05-02T14:36:52;100545.17;;;21.95;45.23
63708;BME280;67643;-34.198;22.084;2023-05-02T14:39:21;100547.12;;;22.35;44.64
63708;BME280;67643;-34.198;22.084;2023-05-02T14:41:49;100550.48;;;22.34;44.80
63708;BME280;67643;-34.198;22.084;2023-05-02T14:44:18;100552.76;;;22.43;44.74
63708;BME280;67643;-34.198;22.084;2023-05-02T14:46:46;100552.35;;;22.34;44.72
63708;BME280;67643;-34.198;22.084;2023-05-02T14:49:15;100558.77;;;22.18;45.06
63708;BME280;67643;-34.198;22.084;2023-05-02T14:51:43;100558.04;;;21.99;45.34
63708;BME280;67643;-34.198;22.084;2023-05-02T14:54:11;100567.80;;;22.43;44.73
63708;BME280;67643;-34.198;22.084;2023-05-02T14:56:40;100569.36;;;22.42;44.64
63708;BME280;67643;-34.198;22.084;2023-05-02T14:59:09;100568.05;;;22.24;45.02
63708;BME280;67643;-34.198;22.084;2023-05-02T15:01:37;100574.82;;;22.31;44.89
63708;BME280;67643;-34.198;22.084;2023-05-02T15:04:05;100580.07;;;21.92;45.45
63708;BME280;67643;-34.198;22.084;2023-05-02T15:06:34;100587.30;;;22.18;45.17
63708;BME280;67643;-34.198;22.084;2023-05-02T15:09:03;100587.61;;;22.03;45.33
63708;BME280;67643;-34.198;22.084;2023-05-02T15:11:33;100588.25;;;21.95;45.45
63708;BME280;67643;-34.198;22.084;2023-05-02T15:14:01;100591.49;;;22.10;45.40
63708;BME280;67643;-34.198;22.084;2023-05-02T15:16:29;100593.11;;;22.04;45.46
63708;BME280;67643;-34.198;22.084;2023-05-02T15:18:58;100597.06;;;21.78;45.90
63708;BME280;67643;-34.198;22.084;2023-05-02T15:21:27;100597.40;;;21.78;46.42
63708;BME280;67643;-34.198;22.084;2023-05-02T15:23:55;100603.02;;;20.89;47.63
63708;BME280;67643;-34.198;22.084;2023-05-02T15:26:24;100602.74;;;20.49;48.96
63708;BME280;67643;-34.198;22.084;2023-05-02T15:28:52;100604.62;;;20.48;49.47
63708;BME280;67643;-34.198;22.084;2023-05-02T15:31:21;100604.82;;;20.49;49.23
63708;BME280;67643;-34.198;22.084;2023-05-02T15:33:50;100606.72;;;20.49;48.82
63708;BME280;67643;-34.198;22.084;2023-05-02T15:36:19;100604.34;;;20.99;48.37
63708;BME280;67643;-34.198;22.084;2023-05-02T15:38:48;100602.63;;;20.67;48.85
63708;BME280;67643;-34.198;22.084;2023-05-02T15:41:16;100600.23;;;20.81;48.76
63708;BME280;67643;-34.198;22.084;2023-05-02T15:43:45;100605.06;;;21.27;47.27
63708;BME280;67643;-34.198;22.084;2023-05-02T15:46:13;100608.25;;;21.02;47.70
63708;BME280;67643;-34.198;22.084;2023-05-02T15:48:42;100611.28;;;20.47;48.67
63708;BME280;67643;-34.198;22.084;2023-05-02T15:51:10;100614.16;;;20.71;48.09
63708;BME280;67643;-34.198;22.084;2023-05-02T15:53:39;100615.73;;;20.81;47.68
63708;BME280;67643;-34.198;22.084;2023-05-02T15:56:08;100620.47;;;21.39;46.87
63708;BME280;67643;-34.198;22.084;2023-05-02T15:58:37;100619.75;;;21.82;45.99
63708;BME280;67643;-34.198;22.084;2023-05-02T16:01:05;100622.09;;;21.89;45.84
63708;BME280;67643;-34.198;22.084;2023-05-02T16:03:34;100622.95;;;21.94;45.58
63708;BME280;67643;-34.198;22.084;2023-05-02T16:06:03;100618.50;;;21.66;46.02
63708;BME280;67643;-34.198;22.084;2023-05-02T16:08:31;100612.97;;;21.92;46.12
63708;BME280;67643;-34.198;22.084;2023-05-02T16:10:59;100612.09;;;22.20;46.22
63708;BME280;67643;-34.198;22.084;2023-05-02T16:13:28;100619.36;;;22.23;46.61
63708;BME280;67643;-34.198;22.084;2023-05-02T16:15:56;100620.54;;;22.32;46.43
63708;BME280;67643;-34.198;22.084;2023-05-02T16:18:25;100623.12;;;22.38;46.40
63708;BME280;67643;-34.198;22.084;2023-05-02T16:20:54;100631.70;;;22.29;46.73
63708;BME280;67643;-34.198;22.084;2023-05-02T16:23:23;100642.54;;;22.58;46.20
63708;BME280;67643;-34.198;22.084;2023-05-02T16:25:57;100645.22;;;22.36;45.68
63708;BME280;67643;-34.198;22.084;2023-05-02T16:28:25;100647.90;;;22.61;46.22
63708;BME280;67643;-34.198;22.084;2023-05-02T16:30:54;100648.77;;;22.32;46.59
63708;BME280;67643;-34.198;22.084;2023-05-02T16:33:23;100646.42;;;22.54;46.21
63708;BME280;67643;-34.198;22.084;2023-05-02T16:36:00;100650.59;;;22.59;46.75
63708;BME280;67643;-34.198;22.084;2023-05-02T16:38:28;100652.59;;;22.74;46.66
63708;BME280;67643;-34.198;22.084;2023-05-02T16:40:56;100656.61;;;22.57;46.59
63708;BME280;67643;-34.198;22.084;2023-05-02T16:43:25;100659.02;;;23.34;45.86
63708;BME280;67643;-34.198;22.084;2023-05-02T16:45:59;100660.08;;;22.68;46.39
63708;BME280;67643;-34.198;22.084;2023-05-02T16:48:29;100664.98;;;22.82;46.25